Sacramento, California
Traffic Map
Current Weather Conditions
Sacramento, California
Clear
Clear
70°
Feels Like: 70°
Wind Chill: 70° Ceiling: Unl
Heat Index: 70° Visibility: 10mi
Dew Point: 62° Wind: 13mph
Humidity: 76% Direction: 210° (SSW)
Pressure: 29.86in Gusts: 0mph
Raw Report DataKSAC 290853Z AUTO 21011KT 10SM CLR 21/17 A2986 RMK AO2 SLP112 T02110167 51012
Traffic Incident Summary
Active as of:
Severity:
Category:
InformationThere was an issue retrieving the traffic information for this location. Please try a different location or try again shortly.
Advertisements
Track Severe Weather on mobile